Pagrindinis puslapis
METAR-TAF:

METAR-TAF

Oro uostai :

Helsinkis, Suomija

platuma: 60-19N, ilguma: 024-58E, Aukštis: 51 m

Dabartinis oras

Ataskaita buvo paskelbta 19 minutes, ne 11:50 UTC
Vėjas 9 kt iš Vakarų/Šiaurės Vakarų, svyruoja nuo Vakarų ir Šiaurės/Šiaurės Vakarų
Temperatūra 0°C
Drėgmė 47%
Slėgis 999 hPa
Matomumas 10 km arba daugiau
nėra debesų žemiau 1500 m ir nėra kamuolinių lietaus debesų

METAR: EFHK 281150Z 30009KT 280V340 CAVOK M00/M10 Q0999 NOSIG

Laikas: 14:09 (12:09 UTC)

Prognozė

Ataskaita buvo paskelbta 43 minutes, ne 11:26 UTC
Prognozė galioja nuo 28 metu 12 UTC su 29 metu 12 UTC
Vėjas 7 kt iš Šiaurės/Šiaurės Vakarų
Matomumas 10 km arba daugiau
nėra debesų žemiau 1500 m ir nėra kamuolinių lietaus debesų
Laikinai
nuo 29 metu 10 UTC su 29 metu 12 UTC
Matomumas: 7000 m
Su prošvaistėmis ne aukštis 1000 ft
Išsisklaidę debesys ne aukštis 3000 ft, Liūtiniai kamuoliniai debesys.
sniegas

TAF: EFHK 281126Z 2812/2912 33007KT CAVOK TEMPO 2910/2912 7000 SHSN BKN010 SCT030CB

Orai ataskaitas ir orų prognozės (METAR, TAF).

turimą stotys yra geltonos ir raudonos taškus žemėlapyje.

Perkelti pele per norėdami pamatyti stoties vardą.

Tada spustelėkite, norėdami matyti oro stebėjimo ir prognozės.

Norėdami pakeisti žemėlapį: spustelėkite ant žalios mygtukų su juodo kryžiaus žemyn,; žalią mygtuką su brūkšneliu, jei norite nutolinti; arba žalių rodyklių gretimoms žemėlapius.


METAR-TAF: